Terminal Aerodrome Forecast
Issued by NWS

Home | Current Version | Previous Version | Text Only | Print | Product List | Glossary On
Versions: 1 2 3 4 5 6 7 8 9 10 11 12 13 14 15 16 17 18 19 20
987
FTUS42 KTAE 221606 AAA
TAFDHN
TAF AMD
KDHN 221606Z 2216/2312 05006KT 6SM -RA BR BKN005 OVC012
      TEMPO 2216/2219 2SM RA BR OVC005
     FM221900 08009KT 6SM -RA BKN015 OVC025
     FM230000 04004KT P6SM BKN010
     FM230400 05005KT 6SM BR OVC005
     FM230700 06005KT 4SM BR OVC003=

USA.gov is the U.S. government's official web portal to all federal, state and local government web resources and services.